sensor_id;sensor_type;location;lat;lon;timestamp;temperature;humidity
21551;DHT22;10936;49.836;7.078;2023-04-25T05:02:16;7.10;99.90
21551;DHT22;10936;49.836;7.078;2023-04-25T05:04:41;7.20;99.90
21551;DHT22;10936;49.836;7.078;2023-04-25T05:07:07;7.20;99.90
21551;DHT22;10936;49.836;7.078;2023-04-25T05:09:32;7.40;99.90
21551;DHT22;10936;49.836;7.078;2023-04-25T05:11:58;7.40;99.90
21551;DHT22;10936;49.836;7.078;2023-04-25T05:14:23;7.50;99.90
21551;DHT22;10936;49.836;7.078;2023-04-25T05:16:49;7.30;99.90
21551;DHT22;10936;49.836;7.078;2023-04-25T05:19:15;7.30;99.90
21551;DHT22;10936;49.836;7.078;2023-04-25T05:21:40;7.30;99.90
21551;DHT22;10936;49.836;7.078;2023-04-25T05:24:06;7.20;99.90
21551;DHT22;10936;49.836;7.078;2023-04-25T05:26:31;7.00;99.90
21551;DHT22;10936;49.836;7.078;2023-04-25T05:28:57;6.80;99.90
21551;DHT22;10936;49.836;7.078;2023-04-25T05:31:23;6.80;99.90
21551;DHT22;10936;49.836;7.078;2023-04-25T05:33:49;6.70;99.90
21551;DHT22;10936;49.836;7.078;2023-04-25T05:36:14;6.70;99.90
21551;DHT22;10936;49.836;7.078;2023-04-25T05:38:40;6.70;99.90
21551;DHT22;10936;49.836;7.078;2023-04-25T05:41:05;6.80;99.90
21551;DHT22;10936;49.836;7.078;2023-04-25T05:43:31;6.70;99.90
21551;DHT22;10936;49.836;7.078;2023-04-25T05:45:56;6.80;99.90
21551;DHT22;10936;49.836;7.078;2023-04-25T05:48:22;6.80;99.90
21551;DHT22;10936;49.836;7.078;2023-04-25T05:50:47;6.80;99.90
21551;DHT22;10936;49.836;7.078;2023-04-25T05:53:13;6.80;99.90
21551;DHT22;10936;49.836;7.078;2023-04-25T05:55:39;6.80;99.90
21551;DHT22;10936;49.836;7.078;2023-04-25T05:58:05;6.80;99.90
21551;DHT22;10936;49.836;7.078;2023-04-25T06:00:31;6.80;99.90
21551;DHT22;10936;49.836;7.078;2023-04-25T06:02:57;6.80;99.90
21551;DHT22;10936;49.836;7.078;2023-04-25T06:05:23;6.80;99.90
21551;DHT22;10936;49.836;7.078;2023-04-25T06:07:48;6.80;99.90
21551;DHT22;10936;49.836;7.078;2023-04-25T06:10:14;6.90;99.90
21551;DHT22;10936;49.836;7.078;2023-04-25T06:12:40;7.00;99.90
21551;DHT22;10936;49.836;7.078;2023-04-25T06:15:06;7.00;99.90
21551;DHT22;10936;49.836;7.078;2023-04-25T06:17:32;6.70;99.90
21551;DHT22;10936;49.836;7.078;2023-04-25T06:19:58;6.50;99.90
21551;DHT22;10936;49.836;7.078;2023-04-25T06:22:23;6.50;99.90
21551;DHT22;10936;49.836;7.078;2023-04-25T06:24:49;6.50;99.90
21551;DHT22;10936;49.836;7.078;2023-04-25T06:27:15;6.50;99.90
21551;DHT22;10936;49.836;7.078;2023-04-25T06:29:40;6.70;99.90
21551;DHT22;10936;49.836;7.078;2023-04-25T06:32:06;6.50;99.90
21551;DHT22;10936;49.836;7.078;2023-04-25T06:34:31;6.50;99.90
21551;DHT22;10936;49.836;7.078;2023-04-25T06:36:57;6.40;99.90
21551;DHT22;10936;49.836;7.078;2023-04-25T06:39:22;6.30;99.90
21551;DHT22;10936;49.836;7.078;2023-04-25T06:41:50;6.30;99.90
21551;DHT22;10936;49.836;7.078;2023-04-25T06:44:15;6.20;99.90
21551;DHT22;10936;49.836;7.078;2023-04-25T06:46:41;6.00;99.90
21551;DHT22;10936;49.836;7.078;2023-04-25T06:49:06;5.90;99.90
21551;DHT22;10936;49.836;7.078;2023-04-25T06:51:32;5.90;99.90
21551;DHT22;10936;49.836;7.078;2023-04-25T06:53:57;5.80;99.90
21551;DHT22;10936;49.836;7.078;2023-04-25T06:56:23;5.80;99.90
21551;DHT22;10936;49.836;7.078;2023-04-25T06:58:49;5.90;99.90
21551;DHT22;10936;49.836;7.078;2023-04-25T07:01:15;5.90;99.90
21551;DHT22;10936;49.836;7.078;2023-04-25T07:03:40;5.90;99.90
21551;DHT22;10936;49.836;7.078;2023-04-25T07:06:06;5.90;99.90
21551;DHT22;10936;49.836;7.078;2023-04-25T07:08:32;6.00;99.90
21551;DHT22;10936;49.836;7.078;2023-04-25T07:10:58;6.10;99.90
21551;DHT22;10936;49.836;7.078;2023-04-25T07:13:23;6.20;99.90
21551;DHT22;10936;49.836;7.078;2023-04-25T07:15:49;6.40;99.90
21551;DHT22;10936;49.836;7.078;2023-04-25T07:18:14;6.50;99.90
21551;DHT22;10936;49.836;7.078;2023-04-25T07:20:40;6.60;99.90
21551;DHT22;10936;49.836;7.078;2023-04-25T07:23:06;6.70;99.90
21551;DHT22;10936;49.836;7.078;2023-04-25T07:25:32;6.80;99.90
21551;DHT22;10936;49.836;7.078;2023-04-25T07:27:57;6.90;99.90
21551;DHT22;10936;49.836;7.078;2023-04-25T07:30:23;6.90;99.90
21551;DHT22;10936;49.836;7.078;2023-04-25T07:32:49;7.10;99.90
21551;DHT22;10936;49.836;7.078;2023-04-25T07:35:16;7.20;99.90
21551;DHT22;10936;49.836;7.078;2023-04-25T07:37:42;7.30;99.90
21551;DHT22;10936;49.836;7.078;2023-04-25T07:40:07;7.60;99.90
21551;DHT22;10936;49.836;7.078;2023-04-25T07:42:34;8.20;99.90
21551;DHT22;10936;49.836;7.078;2023-04-25T07:45:00;8.30;99.90
21551;DHT22;10936;49.836;7.078;2023-04-25T07:47:26;8.20;99.90
21551;DHT22;10936;49.836;7.078;2023-04-25T07:49:52;8.00;99.90
21551;DHT22;10936;49.836;7.078;2023-04-25T07:52:17;8.00;99.90
21551;DHT22;10936;49.836;7.078;2023-04-25T07:54:43;7.90;99.90
21551;DHT22;10936;49.836;7.078;2023-04-25T07:57:08;7.80;99.90
21551;DHT22;10936;49.836;7.078;2023-04-25T07:59:34;7.60;99.90
21551;DHT22;10936;49.836;7.078;2023-04-25T08:02:00;7.40;99.90
21551;DHT22;10936;49.836;7.078;2023-04-25T08:04:26;7.40;99.90
21551;DHT22;10936;49.836;7.078;2023-04-25T08:06:52;7.50;99.90
21551;DHT22;10936;49.836;7.078;2023-04-25T08:09:21;7.20;99.90
21551;DHT22;10936;49.836;7.078;2023-04-25T08:11:47;7.00;99.90
21551;DHT22;10936;49.836;7.078;2023-04-25T08:14:12;6.60;99.90
21551;DHT22;10936;49.836;7.078;2023-04-25T08:16:38;6.50;99.90
21551;DHT22;10936;49.836;7.078;2023-04-25T08:19:04;6.50;99.90
21551;DHT22;10936;49.836;7.078;2023-04-25T08:21:30;6.60;99.90
21551;DHT22;10936;49.836;7.078;2023-04-25T08:23:57;6.80;99.90
21551;DHT22;10936;49.836;7.078;2023-04-25T08:26:26;7.00;99.90
21551;DHT22;10936;49.836;7.078;2023-04-25T08:28:52;7.30;99.90
21551;DHT22;10936;49.836;7.078;2023-04-25T08:31:17;7.50;99.90
21551;DHT22;10936;49.836;7.078;2023-04-25T08:33:43;8.00;99.90
21551;DHT22;10936;49.836;7.078;2023-04-25T08:36:10;8.40;99.90
21551;DHT22;10936;49.836;7.078;2023-04-25T08:38:36;8.60;99.90
21551;DHT22;10936;49.836;7.078;2023-04-25T08:41:02;8.60;99.90
21551;DHT22;10936;49.836;7.078;2023-04-25T08:43:29;8.90;99.90
21551;DHT22;10936;49.836;7.078;2023-04-25T08:46:00;9.20;99.90
21551;DHT22;10936;49.836;7.078;2023-04-25T08:48:27;9.20;99.90
21551;DHT22;10936;49.836;7.078;2023-04-25T08:50:55;9.60;99.90
21551;DHT22;10936;49.836;7.078;2023-04-25T08:53:25;9.90;99.90
21551;DHT22;10936;49.836;7.078;2023-04-25T08:55:53;9.90;99.90
21551;DHT22;10936;49.836;7.078;2023-04-25T08:58:19;10.10;99.90
21551;DHT22;10936;49.836;7.078;2023-04-25T09:00:49;10.10;99.90
21551;DHT22;10936;49.836;7.078;2023-04-25T09:03:16;10.00;99.90
21551;DHT22;10936;49.836;7.078;2023-04-25T09:05:42;10.10;99.90
21551;DHT22;10936;49.836;7.078;2023-04-25T09:08:08;10.10;99.90
21551;DHT22;10936;49.836;7.078;2023-04-25T09:10:34;9.90;99.90
21551;DHT22;10936;49.836;7.078;2023-04-25T09:13:09;9.50;99.90
21551;DHT22;10936;49.836;7.078;2023-04-25T09:16:05;9.40;99.90
21551;DHT22;10936;49.836;7.078;2023-04-25T09:18:33;9.30;99.90
21551;DHT22;10936;49.836;7.078;2023-04-25T09:21:05;9.20;99.90
21551;DHT22;10936;49.836;7.078;2023-04-25T09:23:43;9.60;99.90
21551;DHT22;10936;49.836;7.078;2023-04-25T09:26:09;10.10;99.90
21551;DHT22;10936;49.836;7.078;2023-04-25T09:28:35;10.70;99.90
21551;DHT22;10936;49.836;7.078;2023-04-25T09:31:01;9.90;99.90
21551;DHT22;10936;49.836;7.078;2023-04-25T09:33:32;9.30;99.90
21551;DHT22;10936;49.836;7.078;2023-04-25T09:36:06;9.20;99.90
21551;DHT22;10936;49.836;7.078;2023-04-25T09:38:43;9.90;99.90
21551;DHT22;10936;49.836;7.078;2023-04-25T09:41:10;10.20;99.90
21551;DHT22;10936;49.836;7.078;2023-04-25T09:43:36;10.30;99.90
21551;DHT22;10936;49.836;7.078;2023-04-25T09:46:02;10.50;99.90
21551;DHT22;10936;49.836;7.078;2023-04-25T09:48:32;10.50;99.90
21551;DHT22;10936;49.836;7.078;2023-04-25T09:51:12;10.90;99.90
21551;DHT22;10936;49.836;7.078;2023-04-25T09:53:43;11.80;99.90
21551;DHT22;10936;49.836;7.078;2023-04-25T09:56:11;12.60;99.90
21551;DHT22;10936;49.836;7.078;2023-04-25T09:58:38;13.40;99.90
21551;DHT22;10936;49.836;7.078;2023-04-25T10:01:06;13.60;99.90
21551;DHT22;10936;49.836;7.078;2023-04-25T10:03:35;13.40;99.90
21551;DHT22;10936;49.836;7.078;2023-04-25T10:06:02;12.60;99.90
21551;DHT22;10936;49.836;7.078;2023-04-25T10:08:34;11.40;99.90
21551;DHT22;10936;49.836;7.078;2023-04-25T10:11:06;11.30;99.90
21551;DHT22;10936;49.836;7.078;2023-04-25T10:13:33;11.60;99.90
21551;DHT22;10936;49.836;7.078;2023-04-25T10:16:00;11.80;99.90
21551;DHT22;10936;49.836;7.078;2023-04-25T10:18:29;11.20;99.90
21551;DHT22;10936;49.836;7.078;2023-04-25T10:20:57;10.70;99.90
21551;DHT22;10936;49.836;7.078;2023-04-25T10:23:23;11.50;99.90
21551;DHT22;10936;49.836;7.078;2023-04-25T10:25:50;12.20;99.90
21551;DHT22;10936;49.836;7.078;2023-04-25T10:28:16;12.60;99.90
21551;DHT22;10936;49.836;7.078;2023-04-25T10:31:06;13.30;99.90
21551;DHT22;10936;49.836;7.078;2023-04-25T10:33:37;13.60;99.90
21551;DHT22;10936;49.836;7.078;2023-04-25T10:36:14;12.70;99.90
21551;DHT22;10936;49.836;7.078;2023-04-25T10:38:42;12.30;99.90
21551;DHT22;10936;49.836;7.078;2023-04-25T10:41:10;11.90;99.90
21551;DHT22;10936;49.836;7.078;2023-04-25T10:43:46;11.50;99.90
21551;DHT22;10936;49.836;7.078;2023-04-25T10:46:19;11.50;99.90
21551;DHT22;10936;49.836;7.078;2023-04-25T10:48:54;11.30;99.90
21551;DHT22;10936;49.836;7.078;2023-04-25T10:59:11;12.20;99.90
21551;DHT22;10936;49.836;7.078;2023-04-25T11:01:39;12.60;99.90
21551;DHT22;10936;49.836;7.078;2023-04-25T11:04:05;13.60;99.90
21551;DHT22;10936;49.836;7.078;2023-04-25T11:09:12;15.70;99.90
21551;DHT22;10936;49.836;7.078;2023-04-25T11:11:40;16.00;99.90
21551;DHT22;10936;49.836;7.078;2023-04-25T11:14:06;16.60;99.90
21551;DHT22;10936;49.836;7.078;2023-04-25T11:16:32;17.70;99.90
21551;DHT22;10936;49.836;7.078;2023-04-25T11:18:58;18.50;99.90
21551;DHT22;10936;49.836;7.078;2023-04-25T11:21:25;18.40;99.90
21551;DHT22;10936;49.836;7.078;2023-04-25T11:23:56;20.90;99.90
21551;DHT22;10936;49.836;7.078;2023-04-25T11:26:23;21.90;99.90
21551;DHT22;10936;49.836;7.078;2023-04-25T11:28:49;21.60;99.90
21551;DHT22;10936;49.836;7.078;2023-04-25T11:31:15;22.00;99.90
21551;DHT22;10936;49.836;7.078;2023-04-25T11:33:40;22.10;98.40
21551;DHT22;10936;49.836;7.078;2023-04-25T11:36:08;19.30;99.90
21551;DHT22;10936;49.836;7.078;2023-04-25T11:38:34;17.20;99.90
21551;DHT22;10936;49.836;7.078;2023-04-25T11:40:59;16.70;99.90
21551;DHT22;10936;49.836;7.078;2023-04-25T11:43:25;15.80;99.90
21551;DHT22;10936;49.836;7.078;2023-04-25T11:45:52;14.90;99.90
21551;DHT22;10936;49.836;7.078;2023-04-25T11:48:18;15.00;99.90
21551;DHT22;10936;49.836;7.078;2023-04-25T11:50:44;15.20;99.90
21551;DHT22;10936;49.836;7.078;2023-04-25T11:53:10;14.80;99.90
21551;DHT22;10936;49.836;7.078;2023-04-25T11:55:36;14.00;99.90
21551;DHT22;10936;49.836;7.078;2023-04-25T11:58:03;13.50;99.90
21551;DHT22;10936;49.836;7.078;2023-04-25T12:00:30;12.80;99.90
21551;DHT22;10936;49.836;7.078;2023-04-25T12:02:57;12.50;99.90
21551;DHT22;10936;49.836;7.078;2023-04-25T12:05:28;12.30;99.90
21551;DHT22;10936;49.836;7.078;2023-04-25T12:07:54;12.60;99.90
21551;DHT22;10936;49.836;7.078;2023-04-25T12:10:20;13.20;99.90
21551;DHT22;10936;49.836;7.078;2023-04-25T12:12:47;14.10;99.90
21551;DHT22;10936;49.836;7.078;2023-04-25T12:17:42;15.70;99.90
21551;DHT22;10936;49.836;7.078;2023-04-25T12:20:14;15.50;99.90
21551;DHT22;10936;49.836;7.078;2023-04-25T12:22:44;15.60;99.90
21551;DHT22;10936;49.836;7.078;2023-04-25T12:25:13;16.00;99.90
21551;DHT22;10936;49.836;7.078;2023-04-25T12:27:39;16.00;99.90
21551;DHT22;10936;49.836;7.078;2023-04-25T12:30:09;16.40;99.90
21551;DHT22;10936;49.836;7.078;2023-04-25T12:32:36;17.20;99.90
21551;DHT22;10936;49.836;7.078;2023-04-25T12:35:04;17.20;99.90
21551;DHT22;10936;49.836;7.078;2023-04-25T12:37:30;16.90;99.90
21551;DHT22;10936;49.836;7.078;2023-04-25T12:39:56;16.60;99.90
21551;DHT22;10936;49.836;7.078;2023-04-25T12:42:21;16.90;99.90
21551;DHT22;10936;49.836;7.078;2023-04-25T12:44:47;16.70;99.90
21551;DHT22;10936;49.836;7.078;2023-04-25T12:47:12;16.70;99.90
21551;DHT22;10936;49.836;7.078;2023-04-25T12:49:39;16.50;99.90
21551;DHT22;10936;49.836;7.078;2023-04-25T12:52:04;16.00;99.90
21551;DHT22;10936;49.836;7.078;2023-04-25T12:54:30;15.50;99.90
21551;DHT22;10936;49.836;7.078;2023-04-25T12:56:56;15.10;99.90
21551;DHT22;10936;49.836;7.078;2023-04-25T12:59:22;14.40;99.90
21551;DHT22;10936;49.836;7.078;2023-04-25T13:01:48;13.70;99.90
21551;DHT22;10936;49.836;7.078;2023-04-25T13:04:13;13.30;99.90
21551;DHT22;10936;49.836;7.078;2023-04-25T13:06:39;13.10;99.90
21551;DHT22;10936;49.836;7.078;2023-04-25T13:09:05;13.00;99.90
21551;DHT22;10936;49.836;7.078;2023-04-25T13:11:31;13.50;99.90
21551;DHT22;10936;49.836;7.078;2023-04-25T13:13:57;13.60;99.90
21551;DHT22;10936;49.836;7.078;2023-04-25T13:16:22;13.50;99.90
21551;DHT22;10936;49.836;7.078;2023-04-25T13:18:48;13.50;99.90
21551;DHT22;10936;49.836;7.078;2023-04-25T13:21:14;13.60;99.90
21551;DHT22;10936;49.836;7.078;2023-04-25T13:23:40;13.30;99.90
21551;DHT22;10936;49.836;7.078;2023-04-25T13:26:07;13.10;99.90
21551;DHT22;10936;49.836;7.078;2023-04-25T13:28:32;12.90;99.90
21551;DHT22;10936;49.836;7.078;2023-04-25T13:30:58;12.90;99.90
21551;DHT22;10936;49.836;7.078;2023-04-25T13:33:24;12.90;99.90
21551;DHT22;10936;49.836;7.078;2023-04-25T13:35:51;12.90;99.90
21551;DHT22;10936;49.836;7.078;2023-04-25T13:38:24;12.90;99.90
21551;DHT22;10936;49.836;7.078;2023-04-25T13:40:51;13.10;99.90
21551;DHT22;10936;49.836;7.078;2023-04-25T13:43:20;12.70;99.90
21551;DHT22;10936;49.836;7.078;2023-04-25T13:45:50;12.00;99.90
21551;DHT22;10936;49.836;7.078;2023-04-25T13:48:16;11.90;99.90
21551;DHT22;10936;49.836;7.078;2023-04-25T13:50:41;12.10;99.90
21551;DHT22;10936;49.836;7.078;2023-04-25T13:53:07;12.30;99.90
21551;DHT22;10936;49.836;7.078;2023-04-25T13:55:34;12.60;99.90
21551;DHT22;10936;49.836;7.078;2023-04-25T13:58:00;12.50;99.90
21551;DHT22;10936;49.836;7.078;2023-04-25T14:00:32;12.70;99.90
21551;DHT22;10936;49.836;7.078;2023-04-25T14:02:58;12.90;99.90
21551;DHT22;10936;49.836;7.078;2023-04-25T14:05:23;13.40;99.90
21551;DHT22;10936;49.836;7.078;2023-04-25T14:07:49;13.30;99.90
21551;DHT22;10936;49.836;7.078;2023-04-25T14:10:15;12.80;99.90
21551;DHT22;10936;49.836;7.078;2023-04-25T14:12:41;12.70;99.90
21551;DHT22;10936;49.836;7.078;2023-04-25T14:15:06;12.70;99.90
21551;DHT22;10936;49.836;7.078;2023-04-25T14:17:32;12.40;99.90
21551;DHT22;10936;49.836;7.078;2023-04-25T14:19:57;12.30;99.90
21551;DHT22;10936;49.836;7.078;2023-04-25T14:22:23;12.30;99.90
21551;DHT22;10936;49.836;7.078;2023-04-25T14:24:49;12.10;99.90
21551;DHT22;10936;49.836;7.078;2023-04-25T14:27:14;12.20;99.90
21551;DHT22;10936;49.836;7.078;2023-04-25T14:29:40;11.90;99.90
21551;DHT22;10936;49.836;7.078;2023-04-25T14:32:05;11.60;99.90
21551;DHT22;10936;49.836;7.078;2023-04-25T14:34:31;11.70;99.90
21551;DHT22;10936;49.836;7.078;2023-04-25T14:36:57;11.70;99.90
21551;DHT22;10936;49.836;7.078;2023-04-25T14:39:22;11.80;99.90
21551;DHT22;10936;49.836;7.078;2023-04-25T14:41:48;11.80;99.90
21551;DHT22;10936;49.836;7.078;2023-04-25T14:44:13;11.70;99.90
21551;DHT22;10936;49.836;7.078;2023-04-25T14:46:40;11.60;99.90
21551;DHT22;10936;49.836;7.078;2023-04-25T14:49:06;11.70;99.90
21551;DHT22;10936;49.836;7.078;2023-04-25T14:51:32;12.00;99.90
21551;DHT22;10936;49.836;7.078;2023-04-25T14:53:58;12.70;99.90
21551;DHT22;10936;49.836;7.078;2023-04-25T14:56:23;13.00;99.90
21551;DHT22;10936;49.836;7.078;2023-04-25T14:58:49;12.90;99.90
21551;DHT22;10936;49.836;7.078;2023-04-25T15:01:15;12.30;99.90
21551;DHT22;10936;49.836;7.078;2023-04-25T15:03:41;12.50;99.90
21551;DHT22;10936;49.836;7.078;2023-04-25T15:06:06;12.60;99.90
21551;DHT22;10936;49.836;7.078;2023-04-25T15:08:32;12.40;99.90
21551;DHT22;10936;49.836;7.078;2023-04-25T15:10:58;12.60;99.90
21551;DHT22;10936;49.836;7.078;2023-04-25T15:13:24;13.20;99.90
21551;DHT22;10936;49.836;7.078;2023-04-25T15:15:50;13.20;99.90
21551;DHT22;10936;49.836;7.078;2023-04-25T15:18:17;12.90;99.90
21551;DHT22;10936;49.836;7.078;2023-04-25T15:20:44;12.70;99.90
21551;DHT22;10936;49.836;7.078;2023-04-25T15:23:09;12.80;99.90
21551;DHT22;10936;49.836;7.078;2023-04-25T15:25:35;12.60;99.90
21551;DHT22;10936;49.836;7.078;2023-04-25T15:28:00;12.30;99.90
21551;DHT22;10936;49.836;7.078;2023-04-25T15:30:26;12.00;99.90
21551;DHT22;10936;49.836;7.078;2023-04-25T15:32:52;12.00;99.90
21551;DHT22;10936;49.836;7.078;2023-04-25T15:35:17;12.00;99.90
21551;DHT22;10936;49.836;7.078;2023-04-25T15:37:43;12.10;99.90
21551;DHT22;10936;49.836;7.078;2023-04-25T15:40:11;12.30;99.90
21551;DHT22;10936;49.836;7.078;2023-04-25T15:42:41;12.60;99.90
21551;DHT22;10936;49.836;7.078;2023-04-25T15:45:09;12.60;99.90
21551;DHT22;10936;49.836;7.078;2023-04-25T15:47:36;12.40;99.90
21551;DHT22;10936;49.836;7.078;2023-04-25T15:50:03;12.10;99.90
21551;DHT22;10936;49.836;7.078;2023-04-25T15:52:31;12.20;99.90
21551;DHT22;10936;49.836;7.078;2023-04-25T15:54:56;12.30;99.90
21551;DHT22;10936;49.836;7.078;2023-04-25T15:57:22;12.30;99.90
21551;DHT22;10936;49.836;7.078;2023-04-25T15:59:48;11.90;99.90
21551;DHT22;10936;49.836;7.078;2023-04-25T16:02:14;11.70;99.90
21551;DHT22;10936;49.836;7.078;2023-04-25T16:04:40;11.50;99.90
21551;DHT22;10936;49.836;7.078;2023-04-25T16:07:06;11.30;99.90
21551;DHT22;10936;49.836;7.078;2023-04-25T16:09:33;11.00;99.90
21551;DHT22;10936;49.836;7.078;2023-04-25T16:11:59;11.10;99.90
21551;DHT22;10936;49.836;7.078;2023-04-25T16:14:25;10.90;99.90
21551;DHT22;10936;49.836;7.078;2023-04-25T16:16:51;10.80;99.90
21551;DHT22;10936;49.836;7.078;2023-04-25T16:19:16;10.50;99.90
21551;DHT22;10936;49.836;7.078;2023-04-25T16:21:42;10.40;99.90
21551;DHT22;10936;49.836;7.078;2023-04-25T16:24:08;10.20;99.90
21551;DHT22;10936;49.836;7.078;2023-04-25T16:26:34;9.80;99.90
21551;DHT22;10936;49.836;7.078;2023-04-25T16:29:02;9.60;99.90
21551;DHT22;10936;49.836;7.078;2023-04-25T16:31:28;9.60;99.90
21551;DHT22;10936;49.836;7.078;2023-04-25T16:33:54;9.60;99.90
21551;DHT22;10936;49.836;7.078;2023-04-25T16:36:20;9.50;99.90
21551;DHT22;10936;49.836;7.078;2023-04-25T16:38:45;9.40;99.90
21551;DHT22;10936;49.836;7.078;2023-04-25T16:41:11;9.20;99.90
21551;DHT22;10936;49.836;7.078;2023-04-25T16:43:38;9.00;99.90
21551;DHT22;10936;49.836;7.078;2023-04-25T16:46:05;9.10;99.90
21551;DHT22;10936;49.836;7.078;2023-04-25T16:48:31;9.30;99.90
21551;DHT22;10936;49.836;7.078;2023-04-25T16:50:56;9.40;99.90
21551;DHT22;10936;49.836;7.078;2023-04-25T16:53:22;9.50;99.90
21551;DHT22;10936;49.836;7.078;2023-04-25T16:55:48;9.50;99.90
21551;DHT22;10936;49.836;7.078;2023-04-25T16:58:14;9.40;99.90
21551;DHT22;10936;49.836;7.078;2023-04-25T17:00:40;9.50;99.90
21551;DHT22;10936;49.836;7.078;2023-04-25T17:03:06;9.50;99.90
21551;DHT22;10936;49.836;7.078;2023-04-25T17:05:33;9.50;99.90
21551;DHT22;10936;49.836;7.078;2023-04-25T17:07:59;9.30;99.90
21551;DHT22;10936;49.836;7.078;2023-04-25T17:10:25;9.30;99.90
21551;DHT22;10936;49.836;7.078;2023-04-25T17:12:51;9.10;99.90
21551;DHT22;10936;49.836;7.078;2023-04-25T17:15:16;9.10;99.90
21551;DHT22;10936;49.836;7.078;2023-04-25T17:17:42;9.00;99.90
21551;DHT22;10936;49.836;7.078;2023-04-25T17:20:08;9.00;99.90
21551;DHT22;10936;49.836;7.078;2023-04-25T17:22:38;9.10;99.90
21551;DHT22;10936;49.836;7.078;2023-04-25T17:25:05;9.10;99.90
21551;DHT22;10936;49.836;7.078;2023-04-25T17:27:32;9.20;99.90
21551;DHT22;10936;49.836;7.078;2023-04-25T17:29:57;9.00;99.90
21551;DHT22;10936;49.836;7.078;2023-04-25T17:32:23;9.00;99.90
21551;DHT22;10936;49.836;7.078;2023-04-25T17:34:49;9.00;99.90
21551;DHT22;10936;49.836;7.078;2023-04-25T17:37:15;9.00;99.90
21551;DHT22;10936;49.836;7.078;2023-04-25T17:39:44;9.00;99.90
21551;DHT22;10936;49.836;7.078;2023-04-25T17:42:10;8.90;99.90
21551;DHT22;10936;49.836;7.078;2023-04-25T17:44:37;8.80;99.90
21551;DHT22;10936;49.836;7.078;2023-04-25T17:47:03;8.90;99.90
21551;DHT22;10936;49.836;7.078;2023-04-25T17:49:30;8.90;99.90
21551;DHT22;10936;49.836;7.078;2023-04-25T17:51:56;8.80;99.90
21551;DHT22;10936;49.836;7.078;2023-04-25T17:54:22;8.80;99.90
21551;DHT22;10936;49.836;7.078;2023-04-25T17:56:47;8.60;99.90
21551;DHT22;10936;49.836;7.078;2023-04-25T17:59:13;8.50;99.90
21551;DHT22;10936;49.836;7.078;2023-04-25T18:01:39;8.30;99.90
21551;DHT22;10936;49.836;7.078;2023-04-25T18:04:05;8.20;99.90
21551;DHT22;10936;49.836;7.078;2023-04-25T18:06:31;8.10;99.90
21551;DHT22;10936;49.836;7.078;2023-04-25T18:09:00;8.00;99.90
21551;DHT22;10936;49.836;7.078;2023-04-25T18:11:27;7.90;99.90
21551;DHT22;10936;49.836;7.078;2023-04-25T18:13:53;7.70;99.90
21551;DHT22;10936;49.836;7.078;2023-04-25T18:16:19;7.40;99.90
21551;DHT22;10936;49.836;7.078;2023-04-25T18:18:46;7.20;99.90
21551;DHT22;10936;49.836;7.078;2023-04-25T18:21:18;6.90;99.90
21551;DHT22;10936;49.836;7.078;2023-04-25T18:23:43;6.70;99.90
21551;DHT22;10936;49.836;7.078;2023-04-25T18:26:10;6.50;99.90
21551;DHT22;10936;49.836;7.078;2023-04-25T18:28:36;6.40;99.90
21551;DHT22;10936;49.836;7.078;2023-04-25T18:31:02;6.30;99.90
21551;DHT22;10936;49.836;7.078;2023-04-25T18:33:28;6.10;99.90
21551;DHT22;10936;49.836;7.078;2023-04-25T18:35:54;6.00;99.90
21551;DHT22;10936;49.836;7.078;2023-04-25T18:38:20;5.90;99.90
21551;DHT22;10936;49.836;7.078;2023-04-25T18:40:46;5.80;99.90
21551;DHT22;10936;49.836;7.078;2023-04-25T18:43:13;5.70;99.90
21551;DHT22;10936;49.836;7.078;2023-04-25T18:45:38;5.60;99.90
21551;DHT22;10936;49.836;7.078;2023-04-25T18:48:04;5.60;99.90
21551;DHT22;10936;49.836;7.078;2023-04-25T18:50:30;5.50;99.90
21551;DHT22;10936;49.836;7.078;2023-04-25T18:52:57;5.50;99.90
21551;DHT22;10936;49.836;7.078;2023-04-25T18:55:23;5.60;99.90
21551;DHT22;10936;49.836;7.078;2023-04-25T18:57:49;5.70;99.90
21551;DHT22;10936;49.836;7.078;2023-04-25T19:00:14;5.80;99.90
21551;DHT22;10936;49.836;7.078;2023-04-25T19:02:41;5.80;99.90
21551;DHT22;10936;49.836;7.078;2023-04-25T19:05:07;5.80;99.90
21551;DHT22;10936;49.836;7.078;2023-04-25T19:07:34;5.80;99.90
21551;DHT22;10936;49.836;7.078;2023-04-25T19:10:00;5.80;99.90
21551;DHT22;10936;49.836;7.078;2023-04-25T19:12:25;5.80;99.90
21551;DHT22;10936;49.836;7.078;2023-04-25T19:14:51;5.80;99.90
21551;DHT22;10936;49.836;7.078;2023-04-25T19:17:17;5.90;99.90
21551;DHT22;10936;49.836;7.078;2023-04-25T19:19:43;5.90;99.90
21551;DHT22;10936;49.836;7.078;2023-04-25T19:22:09;5.90;99.90
21551;DHT22;10936;49.836;7.078;2023-04-25T19:24:34;5.90;99.90
21551;DHT22;10936;49.836;7.078;2023-04-25T19:27:00;5.80;99.90
21551;DHT22;10936;49.836;7.078;2023-04-25T19:29:27;5.80;99.90
21551;DHT22;10936;49.836;7.078;2023-04-25T19:31:54;5.70;99.90
21551;DHT22;10936;49.836;7.078;2023-04-25T19:34:21;5.70;99.90
21551;DHT22;10936;49.836;7.078;2023-04-25T19:36:47;5.60;99.90
21551;DHT22;10936;49.836;7.078;2023-04-25T19:39:16;5.40;99.90
21551;DHT22;10936;49.836;7.078;2023-04-25T19:41:42;5.30;99.90
21551;DHT22;10936;49.836;7.078;2023-04-25T19:44:08;5.00;99.90
21551;DHT22;10936;49.836;7.078;2023-04-25T19:46:35;4.90;99.90
21551;DHT22;10936;49.836;7.078;2023-04-25T19:49:01;4.60;99.90
21551;DHT22;10936;49.836;7.078;2023-04-25T19:51:27;4.50;99.90
21551;DHT22;10936;49.836;7.078;2023-04-25T19:53:53;4.30;99.90
21551;DHT22;10936;49.836;7.078;2023-04-25T19:56:22;4.10;99.90
21551;DHT22;10936;49.836;7.078;2023-04-25T19:58:48;4.00;99.90
21551;DHT22;10936;49.836;7.078;2023-04-25T20:01:14;3.90;99.90
21551;DHT22;10936;49.836;7.078;2023-04-25T20:03:41;3.70;99.90
21551;DHT22;10936;49.836;7.078;2023-04-25T20:06:07;3.60;99.90
21551;DHT22;10936;49.836;7.078;2023-04-25T20:08:34;3.40;99.90
21551;DHT22;10936;49.836;7.078;2023-04-25T20:11:00;3.30;99.90
21551;DHT22;10936;49.836;7.078;2023-04-25T20:13:26;3.20;99.90
21551;DHT22;10936;49.836;7.078;2023-04-25T20:15:52;3.10;99.90
21551;DHT22;10936;49.836;7.078;2023-04-25T20:18:17;3.00;99.90
21551;DHT22;10936;49.836;7.078;2023-04-25T20:20:43;2.90;99.90
21551;DHT22;10936;49.836;7.078;2023-04-25T20:23:09;2.80;99.90
21551;DHT22;10936;49.836;7.078;2023-04-25T20:25:35;2.70;99.90
21551;DHT22;10936;49.836;7.078;2023-04-25T20:28:01;2.60;99.90
21551;DHT22;10936;49.836;7.078;2023-04-25T20:30:27;2.50;99.90
21551;DHT22;10936;49.836;7.078;2023-04-25T20:32:52;2.40;99.90
21551;DHT22;10936;49.836;7.078;2023-04-25T20:35:18;2.40;99.90
21551;DHT22;10936;49.836;7.078;2023-04-25T20:37:43;2.30;99.90
21551;DHT22;10936;49.836;7.078;2023-04-25T20:40:10;2.20;99.90
21551;DHT22;10936;49.836;7.078;2023-04-25T20:42:37;2.10;99.90
21551;DHT22;10936;49.836;7.078;2023-04-25T20:45:02;2.00;99.90
21551;DHT22;10936;49.836;7.078;2023-04-25T20:47:38;2.00;99.90
21551;DHT22;10936;49.836;7.078;2023-04-25T20:50:05;2.00;99.90